createdAt,value
2022-12-17T00:00:16.380Z,100.00
2022-12-17T00:03:04.432Z,100.00
2022-12-17T00:05:50.692Z,100.00
2022-12-17T00:08:37.121Z,100.00
2022-12-17T00:11:23.884Z,100.00
2022-12-17T00:14:10.514Z,100.00
2022-12-17T00:16:53.322Z,100.00
2022-12-17T00:19:41.341Z,100.00
2022-12-17T00:22:27.604Z,100.00
2022-12-17T00:25:14.219Z,100.00
2022-12-17T00:28:00.963Z,100.00
2022-12-17T00:30:47.309Z,100.00
2022-12-17T00:33:33.946Z,100.00
2022-12-17T00:36:22.791Z,100.00
2022-12-17T00:39:09.500Z,100.00
2022-12-17T00:41:56.652Z,100.00
2022-12-17T00:44:43.205Z,100.00
2022-12-17T00:47:29.798Z,100.00
2022-12-17T00:50:16.603Z,100.00
2022-12-17T00:53:04.508Z,100.00
2022-12-17T00:55:51.080Z,100.00
2022-12-17T00:58:37.503Z,100.00
2022-12-17T01:01:24.479Z,100.00
2022-12-17T01:04:11.185Z,100.00
2022-12-17T01:06:57.778Z,100.00
2022-12-17T01:09:45.604Z,100.00
2022-12-17T01:12:32.267Z,100.00
2022-12-17T01:15:19.535Z,100.00
2022-12-17T01:18:06.980Z,100.00
2022-12-17T01:20:53.235Z,100.00
2022-12-17T01:23:40.376Z,100.00
2022-12-17T01:26:28.305Z,100.00
2022-12-17T01:29:15.645Z,100.00
2022-12-17T01:32:02.198Z,100.00
2022-12-17T01:34:48.607Z,100.00
2022-12-17T01:37:35.020Z,100.00
2022-12-17T01:40:21.514Z,100.00
2022-12-17T01:43:09.407Z,100.00
2022-12-17T01:45:58.317Z,100.00
2022-12-17T01:48:49.409Z,100.00
2022-12-17T01:51:36.833Z,100.00
2022-12-17T01:54:24.416Z,100.00
2022-12-17T01:57:16.239Z,100.00
2022-12-17T02:00:09.710Z,100.00
2022-12-17T02:03:02.828Z,100.00
2022-12-17T02:05:57.132Z,100.00
2022-12-17T02:08:56.117Z,100.00
2022-12-17T02:12:01.004Z,100.00
2022-12-17T02:14:55.794Z,100.00
2022-12-17T02:17:51.023Z,100.00
2022-12-17T02:20:43.197Z,100.00
2022-12-17T02:23:43.713Z,100.00
2022-12-17T02:26:36.937Z,100.00
2022-12-17T02:29:26.367Z,100.00
2022-12-17T02:32:13.396Z,100.00
2022-12-17T02:35:04.388Z,100.00
2022-12-17T02:37:52.545Z,100.00
2022-12-17T02:40:41.260Z,100.00
2022-12-17T02:43:30.414Z,100.00
2022-12-17T02:46:18.221Z,100.00
2022-12-17T02:49:04.701Z,100.00
2022-12-17T02:51:52.651Z,100.00
2022-12-17T02:54:39.095Z,100.00
2022-12-17T02:57:25.616Z,100.00
2022-12-17T03:00:14.910Z,100.00
2022-12-17T03:03:02.766Z,100.00
2022-12-17T03:05:49.252Z,100.00
2022-12-17T03:08:37.437Z,100.00
2022-12-17T03:11:23.737Z,100.00
2022-12-17T03:14:11.119Z,100.00
2022-12-17T03:16:57.691Z,100.00
2022-12-17T03:19:57.284Z,100.00
2022-12-17T03:22:43.615Z,100.00
2022-12-17T03:25:30.305Z,100.00
2022-12-17T03:28:22.306Z,100.00
2022-12-17T03:31:08.839Z,100.00
2022-12-17T03:33:55.885Z,100.00
2022-12-17T03:36:43.547Z,100.00
2022-12-17T03:39:29.996Z,100.00
2022-12-17T03:42:16.636Z,100.00
2022-12-17T03:45:03.246Z,100.00
2022-12-17T03:47:50.279Z,100.00
2022-12-17T03:50:37.320Z,100.00
2022-12-17T03:53:25.046Z,100.00
2022-12-17T03:56:13.885Z,100.00
2022-12-17T03:59:00.480Z,100.00
2022-12-17T04:01:48.651Z,100.00
2022-12-17T04:04:35.325Z,100.00
2022-12-17T04:07:21.720Z,100.00
2022-12-17T04:10:09.591Z,100.00
2022-12-17T04:12:56.332Z,100.00
2022-12-17T04:15:45.307Z,100.00
2022-12-17T04:18:31.732Z,100.00
2022-12-17T04:21:18.045Z,100.00
2022-12-17T04:24:04.397Z,100.00
2022-12-17T04:26:52.476Z,100.00
2022-12-17T04:29:38.966Z,100.00
2022-12-17T04:32:25.319Z,100.00
2022-12-17T04:35:12.090Z,100.00
2022-12-17T04:37:58.628Z,100.00
2022-12-17T04:40:45.345Z,100.00
2022-12-17T04:43:33.112Z,100.00
2022-12-17T04:46:19.922Z,100.00
2022-12-17T04:49:06.358Z,100.00
2022-12-17T04:51:52.893Z,100.00
2022-12-17T04:54:39.266Z,100.00
2022-12-17T04:57:26.003Z,100.00
2022-12-17T05:00:13.864Z,100.00
2022-12-17T05:03:00.640Z,100.00
2022-12-17T05:05:47.722Z,100.00
2022-12-17T05:08:39.628Z,100.00
2022-12-17T05:11:33.173Z,100.00
2022-12-17T05:14:19.536Z,100.00
2022-12-17T05:17:07.445Z,100.00
2022-12-17T05:19:53.972Z,100.00
2022-12-17T05:22:40.495Z,100.00
2022-12-17T05:25:27.320Z,100.00
2022-12-17T05:28:13.527Z,100.00
2022-12-17T05:31:00.207Z,100.00
2022-12-17T05:33:49.111Z,100.00
2022-12-17T05:36:35.759Z,100.00
2022-12-17T05:39:22.366Z,100.00
2022-12-17T05:42:08.992Z,100.00
2022-12-17T05:44:55.531Z,100.00
2022-12-17T05:47:42.136Z,100.00
2022-12-17T05:50:30.100Z,100.00
2022-12-17T05:53:20.890Z,100.00
2022-12-17T05:56:08.795Z,100.00
2022-12-17T05:58:55.077Z,100.00
2022-12-17T06:01:41.845Z,100.00
2022-12-17T06:04:28.718Z,100.00
2022-12-17T06:07:16.576Z,100.00
2022-12-17T06:10:03.051Z,100.00
2022-12-17T06:12:49.748Z,100.00
2022-12-17T06:15:36.075Z,100.00
2022-12-17T06:18:22.839Z,100.00
2022-12-17T06:21:11.595Z,100.00
2022-12-17T06:23:59.252Z,100.00
2022-12-17T06:26:45.644Z,100.00
2022-12-17T06:29:32.274Z,100.00
2022-12-17T06:32:18.869Z,100.00
2022-12-17T06:35:06.396Z,100.00
2022-12-17T06:37:53.101Z,100.00
2022-12-17T06:40:41.241Z,100.00
2022-12-17T06:43:27.667Z,100.00
2022-12-17T06:46:14.587Z,100.00
2022-12-17T06:49:00.871Z,100.00
2022-12-17T06:51:47.509Z,100.00
2022-12-17T06:54:34.096Z,100.00
2022-12-17T06:57:22.833Z,100.00
2022-12-17T07:00:09.484Z,100.00
2022-12-17T07:02:56.949Z,100.00
2022-12-17T07:05:43.380Z,100.00
2022-12-17T07:08:29.979Z,100.00
2022-12-17T07:11:14.784Z,100.00
2022-12-17T07:14:02.680Z,100.00
2022-12-17T07:16:49.086Z,100.00
2022-12-17T07:19:35.596Z,100.00
2022-12-17T07:22:22.157Z,100.00
2022-12-17T07:25:08.807Z,100.00
2022-12-17T07:27:55.463Z,100.00
2022-12-17T07:30:43.349Z,100.00
2022-12-17T07:33:29.645Z,100.00
2022-12-17T07:36:16.153Z,100.00
2022-12-17T07:39:03.009Z,100.00
2022-12-17T07:41:49.368Z,100.00
2022-12-17T07:44:35.998Z,100.00
2022-12-17T07:47:23.671Z,100.00
2022-12-17T07:50:10.195Z,100.00
2022-12-17T07:52:56.833Z,100.00
2022-12-17T07:55:43.353Z,100.00
2022-12-17T07:58:30.221Z,100.00
2022-12-17T08:01:19.109Z,100.00
2022-12-17T08:04:07.271Z,100.00
2022-12-17T08:07:01.676Z,100.00
2022-12-17T08:09:52.882Z,100.00
2022-12-17T08:12:39.475Z,100.00
2022-12-17T08:15:26.387Z,100.00
2022-12-17T08:18:22.962Z,100.00
2022-12-17T08:21:14.352Z,100.00
2022-12-17T08:24:00.489Z,100.00
2022-12-17T08:26:48.399Z,100.00
2022-12-17T08:29:35.311Z,100.00
2022-12-17T08:32:21.704Z,100.00
2022-12-17T08:35:08.332Z,100.00
2022-12-17T08:37:56.199Z,100.00
2022-12-17T08:40:42.593Z,100.00
2022-12-17T08:43:28.756Z,100.00
2022-12-17T08:46:23.604Z,100.00
2022-12-17T08:49:10.246Z,100.00
2022-12-17T08:51:56.878Z,100.00
2022-12-17T08:54:44.539Z,100.00
2022-12-17T08:57:32.196Z,100.00
2022-12-17T09:00:19.162Z,100.00
2022-12-17T09:03:05.706Z,100.00
2022-12-17T09:05:52.223Z,100.00
2022-12-17T09:08:38.763Z,100.00
2022-12-17T09:11:26.891Z,100.00
2022-12-17T09:14:13.432Z,100.00
2022-12-17T09:17:00.229Z,100.00
2022-12-17T09:19:47.122Z,100.00
2022-12-17T09:22:33.423Z,100.00
2022-12-17T09:25:19.602Z,100.00
2022-12-17T09:28:12.696Z,100.00
2022-12-17T09:30:59.087Z,100.00
2022-12-17T09:33:45.155Z,100.00
2022-12-17T09:36:31.317Z,100.00
2022-12-17T09:39:17.394Z,100.00
2022-12-17T09:42:28.791Z,100.00
2022-12-17T09:45:23.030Z,100.00
2022-12-17T09:48:15.196Z,100.00
2022-12-17T09:51:13.518Z,100.00
2022-12-17T09:54:09.094Z,100.00
2022-12-17T09:56:57.404Z,97.37
2022-12-17T09:59:46.392Z,91.26
2022-12-17T10:02:37.971Z,98.23
2022-12-17T10:05:31.273Z,93.42
2022-12-17T10:08:18.685Z,96.02
2022-12-17T10:11:05.630Z,100.00
2022-12-17T10:13:51.604Z,100.00
2022-12-17T10:16:45.779Z,100.00
2022-12-17T10:19:40.038Z,100.00
2022-12-17T10:22:28.291Z,100.00
2022-12-17T10:25:14.370Z,100.00
2022-12-17T10:28:00.939Z,100.00
2022-12-17T10:30:47.768Z,100.00
2022-12-17T10:33:38.108Z,100.00
2022-12-17T10:36:39.731Z,100.00
2022-12-17T10:39:32.949Z,100.00
2022-12-17T10:42:19.386Z,100.00
2022-12-17T10:45:05.673Z,100.00
2022-12-17T10:47:52.364Z,100.00
2022-12-17T11:08:37.643Z,100.00
2022-12-17T11:11:30.225Z,100.00
2022-12-17T11:14:17.636Z,100.00
2022-12-17T11:17:09.844Z,100.00
2022-12-17T11:20:02.924Z,100.00
2022-12-17T11:22:56.316Z,100.00
2022-12-17T11:25:51.187Z,100.00
2022-12-17T11:28:41.675Z,100.00
2022-12-17T11:31:48.880Z,100.00
2022-12-17T11:34:44.179Z,100.00
2022-12-17T11:37:35.946Z,100.00
2022-12-17T11:40:33.891Z,100.00
2022-12-17T11:43:32.800Z,100.00
2022-12-17T11:46:33.210Z,100.00
2022-12-17T11:49:29.276Z,100.00
2022-12-17T11:52:21.122Z,100.00
2022-12-17T11:55:16.172Z,99.65
2022-12-17T11:58:10.689Z,94.28
2022-12-17T12:01:08.418Z,88.90
2022-12-17T12:04:04.647Z,87.83
2022-12-17T12:07:04.314Z,88.84
2022-12-17T12:09:56.780Z,94.60
2022-12-17T12:13:08.849Z,86.67
2022-12-17T12:16:07.377Z,89.10
2022-12-17T12:19:06.273Z,89.56
2022-12-17T12:21:58.531Z,98.07
2022-12-17T12:24:58.569Z,99.86
2022-12-17T12:27:55.298Z,99.92
2022-12-17T12:30:43.387Z,100.00
2022-12-17T12:33:43.098Z,95.82
2022-12-17T12:36:34.035Z,100.00
2022-12-17T12:39:20.847Z,100.00
2022-12-17T12:42:14.061Z,100.00
2022-12-17T12:45:10.265Z,100.00
2022-12-17T12:48:06.179Z,99.34
2022-12-17T12:51:04.046Z,99.73
2022-12-17T12:53:49.929Z,97.01
2022-12-17T12:56:48.069Z,98.14
2022-12-17T12:59:44.886Z,100.00
2022-12-17T13:02:45.565Z,100.00
2022-12-17T13:05:37.350Z,100.00
2022-12-17T13:08:21.479Z,100.00
2022-12-17T13:10:52.482Z,100.00
2022-12-17T13:13:56.067Z,100.00
2022-12-17T13:16:34.169Z,100.00
2022-12-17T13:19:17.931Z,97.45
2022-12-17T13:21:47.021Z,93.77
2022-12-17T13:24:27.517Z,94.69
2022-12-17T13:26:56.644Z,93.34
2022-12-17T13:29:29.861Z,92.88
2022-12-17T13:32:17.316Z,93.75
2022-12-17T13:35:10.523Z,97.30
2022-12-17T13:37:47.805Z,95.22
2022-12-17T13:40:35.601Z,94.92
2022-12-17T13:43:04.821Z,92.12
2022-12-17T13:45:38.713Z,94.57
2022-12-17T13:48:08.017Z,93.48
2022-12-17T13:50:37.186Z,88.19
2022-12-17T13:53:13.360Z,98.52
2022-12-17T13:55:52.176Z,93.49
2022-12-17T13:58:26.846Z,93.17
2022-12-17T14:01:08.793Z,94.85
2022-12-17T14:04:08.509Z,94.56
2022-12-17T14:06:30.118Z,93.18
2022-12-17T14:09:00.038Z,97.15
2022-12-17T14:11:46.779Z,93.81
2022-12-17T14:14:23.234Z,92.69
2022-12-17T14:16:52.212Z,96.01
2022-12-17T14:19:21.137Z,100.00
2022-12-17T14:21:50.120Z,100.00
2022-12-17T14:24:23.256Z,100.00
2022-12-17T14:26:56.019Z,100.00
2022-12-17T14:29:26.116Z,100.00
2022-12-17T14:31:57.548Z,100.00
2022-12-17T14:34:26.677Z,100.00
2022-12-17T14:36:58.279Z,100.00
2022-12-17T14:39:29.111Z,100.00
2022-12-17T14:42:26.383Z,100.00
2022-12-17T14:44:56.889Z,100.00
2022-12-17T14:47:27.290Z,100.00
2022-12-17T14:49:59.503Z,100.00
2022-12-17T14:52:43.298Z,100.00
2022-12-17T14:55:40.099Z,100.00
2022-12-17T14:58:20.194Z,100.00
2022-12-17T15:00:52.665Z,100.00
2022-12-17T15:03:25.448Z,100.00
2022-12-17T15:05:58.188Z,100.00
2022-12-17T15:08:27.436Z,100.00
2022-12-17T15:10:56.248Z,100.00
2022-12-17T15:13:26.508Z,100.00
2022-12-17T15:15:55.411Z,100.00
2022-12-17T15:18:26.748Z,100.00
2022-12-17T15:20:56.658Z,100.00
2022-12-17T15:23:26.098Z,100.00
2022-12-17T15:25:55.293Z,100.00
2022-12-17T15:28:25.993Z,100.00
2022-12-17T15:30:55.014Z,100.00
2022-12-17T15:33:23.914Z,100.00
2022-12-17T15:35:52.792Z,100.00
2022-12-17T15:38:21.970Z,100.00
2022-12-17T15:40:50.831Z,100.00
2022-12-17T15:43:18.664Z,100.00
2022-12-17T15:45:50.529Z,100.00
2022-12-17T15:48:21.026Z,100.00
2022-12-17T15:50:50.001Z,100.00
2022-12-17T15:53:18.856Z,100.00
2022-12-17T15:55:47.639Z,100.00
2022-12-17T15:58:16.755Z,100.00
2022-12-17T16:00:45.583Z,100.00
2022-12-17T16:03:15.799Z,100.00
2022-12-17T16:05:44.697Z,100.00
2022-12-17T16:08:13.607Z,100.00
2022-12-17T16:10:42.529Z,100.00
2022-12-17T16:13:11.413Z,100.00
2022-12-17T16:15:40.280Z,100.00
2022-12-17T16:18:09.202Z,100.00
2022-12-17T16:20:39.416Z,100.00
2022-12-17T16:23:08.230Z,100.00
2022-12-17T16:25:37.085Z,100.00
2022-12-17T16:28:06.037Z,100.00
2022-12-17T16:30:34.937Z,100.00
2022-12-17T16:33:03.790Z,100.00
2022-12-17T16:35:32.604Z,100.00
2022-12-17T16:38:03.860Z,100.00
2022-12-17T16:40:32.860Z,100.00
2022-12-17T16:43:02.032Z,100.00
2022-12-17T16:45:30.855Z,100.00
2022-12-17T16:47:59.752Z,100.00
2022-12-17T16:50:29.675Z,100.00
2022-12-17T16:52:58.489Z,100.00
2022-12-17T16:55:28.835Z,100.00
2022-12-17T16:57:57.921Z,100.00
2022-12-17T17:00:26.781Z,100.00
2022-12-17T17:03:14.360Z,100.00
2022-12-17T17:05:43.378Z,100.00
2022-12-17T17:08:12.209Z,100.00
2022-12-17T17:10:42.472Z,100.00
2022-12-17T17:13:12.944Z,100.00
2022-12-17T17:15:42.040Z,100.00
2022-12-17T17:18:10.884Z,100.00
2022-12-17T17:20:39.760Z,100.00
2022-12-17T17:23:08.605Z,100.00
2022-12-17T17:25:57.458Z,100.00
2022-12-17T17:28:27.707Z,100.00
2022-12-17T17:31:00.206Z,100.00
2022-12-17T17:33:31.221Z,100.00
2022-12-17T17:36:04.739Z,100.00
2022-12-17T17:38:34.598Z,100.00
2022-12-17T17:41:04.674Z,100.00
2022-12-17T17:43:34.924Z,100.00
2022-12-17T17:46:08.111Z,100.00
2022-12-17T17:48:37.766Z,100.00
2022-12-17T17:51:09.738Z,100.00
2022-12-17T17:53:38.763Z,100.00
2022-12-17T17:56:15.118Z,100.00
2022-12-17T17:58:47.196Z,100.00
2022-12-17T18:01:19.532Z,100.00
2022-12-17T18:03:48.759Z,100.00
2022-12-17T18:06:18.819Z,100.00
2022-12-17T18:08:47.800Z,100.00
2022-12-17T18:11:22.889Z,100.00
2022-12-17T18:13:55.364Z,100.00
2022-12-17T18:16:26.256Z,100.00
2022-12-17T18:18:57.033Z,100.00
2022-12-17T18:21:28.265Z,100.00
2022-12-17T18:23:59.864Z,100.00
2022-12-17T18:26:29.917Z,100.00
2022-12-17T18:29:03.027Z,100.00
2022-12-17T18:31:32.716Z,100.00
2022-12-17T18:34:03.574Z,100.00
2022-12-17T18:36:34.204Z,100.00
2022-12-17T18:39:06.693Z,100.00
2022-12-17T18:41:53.793Z,100.00
2022-12-17T18:44:24.649Z,100.00
2022-12-17T18:46:53.851Z,100.00
2022-12-17T18:49:24.907Z,100.00
2022-12-17T18:51:55.215Z,100.00
2022-12-17T18:54:25.747Z,100.00
2022-12-17T18:57:01.578Z,100.00
2022-12-17T18:59:32.802Z,100.00
2022-12-17T19:02:02.181Z,100.00
2022-12-17T19:04:33.051Z,100.00
2022-12-17T19:07:02.046Z,100.00
2022-12-17T19:09:34.460Z,100.00
2022-12-17T19:12:06.039Z,100.00
2022-12-17T19:14:37.479Z,100.00
2022-12-17T19:17:06.559Z,100.00
2022-12-17T19:19:35.415Z,100.00
2022-12-17T19:22:04.268Z,100.00
2022-12-17T19:24:33.168Z,100.00
2022-12-17T19:27:02.060Z,100.00
2022-12-17T19:29:30.990Z,100.00
2022-12-17T19:32:02.334Z,100.00
2022-12-17T19:34:32.434Z,100.00
2022-12-17T19:37:01.978Z,100.00
2022-12-17T19:39:30.819Z,100.00
2022-12-17T19:41:59.714Z,100.00
2022-12-17T19:44:28.548Z,100.00
2022-12-17T19:46:58.322Z,100.00
2022-12-17T19:49:28.566Z,100.00
2022-12-17T19:51:57.689Z,100.00
2022-12-17T19:54:26.790Z,100.00
2022-12-17T19:56:55.756Z,100.00
2022-12-17T19:59:24.753Z,100.00
2022-12-17T20:01:53.681Z,100.00
2022-12-17T20:04:22.584Z,100.00
2022-12-17T20:06:52.859Z,100.00
2022-12-17T20:09:21.657Z,100.00
2022-12-17T20:11:50.593Z,100.00
2022-12-17T20:14:21.968Z,100.00
2022-12-17T20:16:53.317Z,100.00
2022-12-17T20:19:24.707Z,100.00
2022-12-17T20:21:55.957Z,100.00
2022-12-17T20:24:31.243Z,100.00
2022-12-17T20:27:01.095Z,100.00
2022-12-17T20:29:30.316Z,100.00
2022-12-17T20:31:59.351Z,100.00
2022-12-17T20:34:28.233Z,100.00
2022-12-17T20:36:58.480Z,100.00
2022-12-17T20:39:28.195Z,100.00
2022-12-17T20:41:57.775Z,100.00
2022-12-17T20:44:27.037Z,100.00
2022-12-17T20:46:55.992Z,100.00
2022-12-17T20:49:24.831Z,100.00
2022-12-17T20:51:53.887Z,100.00
2022-12-17T20:54:24.104Z,100.00
2022-12-17T20:56:52.963Z,100.00
2022-12-17T20:59:21.916Z,100.00
2022-12-17T21:01:55.901Z,100.00
2022-12-17T21:04:25.351Z,100.00
2022-12-17T21:06:54.443Z,100.00
2022-12-17T21:09:25.722Z,100.00
2022-12-17T21:11:54.624Z,100.00
2022-12-17T21:14:23.469Z,100.00
2022-12-17T21:16:52.456Z,100.00
2022-12-17T21:19:21.455Z,100.00
2022-12-17T21:21:50.561Z,100.00
2022-12-17T21:24:19.759Z,100.00
2022-12-17T21:26:50.018Z,100.00
2022-12-17T21:29:19.093Z,100.00
2022-12-17T21:31:50.113Z,100.00
2022-12-17T21:34:22.076Z,100.00
2022-12-17T21:36:51.410Z,100.00
2022-12-17T21:39:21.618Z,100.00
2022-12-17T21:42:09.259Z,100.00
2022-12-17T21:44:38.145Z,100.00
2022-12-17T21:47:07.198Z,100.00
2022-12-17T21:49:36.160Z,100.00
2022-12-17T21:52:06.419Z,100.00
2022-12-17T21:54:36.603Z,100.00
2022-12-17T21:57:07.432Z,100.00
2022-12-17T21:59:36.264Z,100.00
2022-12-17T22:02:05.237Z,100.00
2022-12-17T22:04:34.304Z,100.00
2022-12-17T22:07:10.325Z,100.00
2022-12-17T22:09:59.152Z,100.00
2022-12-17T22:12:48.834Z,100.00
2022-12-17T22:15:18.051Z,100.00
2022-12-17T22:17:47.693Z,100.00
2022-12-17T22:20:17.480Z,100.00
2022-12-17T22:22:46.741Z,100.00
2022-12-17T22:25:16.006Z,100.00
2022-12-17T22:27:46.371Z,100.00
2022-12-17T22:30:35.155Z,100.00
2022-12-17T22:33:07.578Z,100.00
2022-12-17T22:36:57.799Z,100.00
2022-12-17T22:42:06.211Z,100.00
2022-12-17T22:44:36.460Z,100.00
2022-12-17T22:44:48.283Z,100.00
2022-12-17T22:47:14.429Z,100.00
2022-12-17T22:49:44.344Z,100.00
2022-12-17T22:52:13.605Z,100.00
2022-12-17T22:54:44.296Z,100.00
2022-12-17T22:57:36.991Z,100.00
2022-12-17T23:00:03.885Z,100.00
2022-12-17T23:02:34.051Z,100.00
2022-12-17T23:05:03.293Z,100.00
2022-12-17T23:07:32.288Z,100.00
2022-12-17T23:10:02.039Z,100.00
2022-12-17T23:12:48.092Z,100.00
2022-12-17T23:15:18.556Z,100.00
2022-12-17T23:17:47.591Z,100.00
2022-12-17T23:20:17.217Z,100.00
2022-12-17T23:22:46.076Z,100.00
2022-12-17T23:25:15.090Z,100.00
2022-12-17T23:27:44.228Z,100.00
2022-12-17T23:30:14.657Z,100.00
2022-12-17T23:32:45.220Z,100.00
2022-12-17T23:35:14.784Z,100.00
2022-12-17T23:37:43.943Z,100.00
2022-12-17T23:40:14.173Z,100.00
2022-12-17T23:42:43.240Z,100.00
2022-12-17T23:45:12.458Z,100.00
2022-12-17T23:47:42.251Z,100.00
2022-12-17T23:50:12.851Z,100.00
2022-12-17T23:52:41.661Z,100.00
2022-12-17T23:55:12.458Z,100.00
2022-12-17T23:57:41.281Z,100.00
